createdAt,value
2023-01-10T00:02:00.441Z,4.30
2023-01-10T00:04:30.000Z,4.30
2023-01-10T00:06:58.192Z,4.30
2023-01-10T00:09:26.248Z,4.20
2023-01-10T00:12:12.904Z,4.30
2023-01-10T00:14:40.965Z,4.30
2023-01-10T00:17:08.964Z,4.30
2023-01-10T00:19:36.991Z,4.30
2023-01-10T00:22:13.719Z,4.20
2023-01-10T00:24:43.050Z,4.20
2023-01-10T00:27:17.099Z,4.20
2023-01-10T00:29:45.386Z,4.20
2023-01-10T00:32:13.415Z,4.20
2023-01-10T00:34:41.444Z,4.20
2023-01-10T00:37:09.471Z,4.20
2023-01-10T00:39:37.503Z,4.20
2023-01-10T00:42:23.380Z,4.20
2023-01-10T00:44:52.792Z,4.20
2023-01-10T00:47:20.804Z,4.20
2023-01-10T00:49:48.829Z,4.20
2023-01-10T00:52:16.868Z,4.20
2023-01-10T00:54:44.926Z,4.20
2023-01-10T00:57:12.948Z,4.20
2023-01-10T00:59:40.992Z,4.20
2023-01-10T01:02:10.452Z,4.20
2023-01-10T01:04:38.525Z,4.10
2023-01-10T01:07:06.579Z,4.10
2023-01-10T01:09:34.633Z,4.10
2023-01-10T01:12:02.649Z,4.10
2023-01-10T01:14:30.711Z,4.10
2023-01-10T01:16:58.687Z,4.10
2023-01-10T01:19:29.467Z,4.10
2023-01-10T01:21:57.485Z,4.00
2023-01-10T01:24:25.487Z,4.10
2023-01-10T01:26:53.577Z,4.00
2023-01-10T01:29:22.417Z,4.10
2023-01-10T01:31:50.431Z,4.10
2023-01-10T01:34:18.602Z,4.10
2023-01-10T01:36:48.556Z,4.10
2023-01-10T01:39:16.584Z,4.10
2023-01-10T01:42:00.387Z,4.10
2023-01-10T01:44:33.514Z,4.10
2023-01-10T01:47:05.486Z,4.10
2023-01-10T01:49:35.014Z,4.10
2023-01-10T01:52:08.175Z,4.10
2023-01-10T01:54:36.769Z,4.10
2023-01-10T01:57:08.285Z,4.10
2023-01-10T01:59:39.668Z,4.10
2023-01-10T02:02:12.791Z,4.10
2023-01-10T02:04:47.133Z,4.10
2023-01-10T02:07:16.887Z,4.10
2023-01-10T02:09:49.096Z,4.10
2023-01-10T02:12:17.476Z,4.10
2023-01-10T02:14:48.295Z,4.10
2023-01-10T02:17:16.784Z,4.10
2023-01-10T02:19:53.268Z,4.20
2023-01-10T02:22:51.661Z,4.20
2023-01-10T02:25:47.983Z,4.10
2023-01-10T02:28:40.811Z,4.10
2023-01-10T02:31:26.534Z,4.10
2023-01-10T02:34:05.328Z,4.10
2023-01-10T02:36:45.531Z,4.10
2023-01-10T02:39:19.071Z,4.00
2023-01-10T02:41:53.067Z,3.90
2023-01-10T02:44:25.047Z,3.90
2023-01-10T02:46:53.194Z,3.90
2023-01-10T02:49:22.558Z,3.90
2023-01-10T02:51:50.601Z,3.80
2023-01-10T02:54:23.220Z,3.90
2023-01-10T02:57:25.451Z,3.90
2023-01-10T03:00:21.213Z,3.80
2023-01-10T03:03:20.106Z,3.80
2023-01-10T03:05:56.665Z,3.90
2023-01-10T03:08:31.852Z,3.90
2023-01-10T03:11:02.541Z,3.90
2023-01-10T03:13:35.640Z,3.80
2023-01-10T03:16:06.892Z,3.80
2023-01-10T03:18:40.302Z,3.80
2023-01-10T03:21:11.303Z,3.80
2023-01-10T03:23:41.712Z,3.70
2023-01-10T03:26:12.404Z,3.70
2023-01-10T03:28:46.687Z,3.70
2023-01-10T03:31:18.432Z,3.70
2023-01-10T03:33:46.743Z,3.70
2023-01-10T03:36:26.920Z,3.80
2023-01-10T03:38:58.158Z,3.80
2023-01-10T03:41:36.827Z,3.90
2023-01-10T03:44:32.191Z,3.90
2023-01-10T03:47:04.677Z,3.90
2023-01-10T03:49:35.241Z,3.90
2023-01-10T03:52:05.808Z,3.90
2023-01-10T03:54:34.044Z,3.90
2023-01-10T03:57:02.909Z,3.90
2023-01-10T03:59:31.686Z,3.90
2023-01-10T04:01:59.921Z,3.90
2023-01-10T04:04:28.334Z,3.90
2023-01-10T04:06:56.370Z,3.90
2023-01-10T04:09:25.867Z,3.90
2023-01-10T04:11:53.945Z,3.90
2023-01-10T04:14:22.041Z,3.90
2023-01-10T04:16:50.098Z,3.90
2023-01-10T04:19:18.155Z,3.90
2023-01-10T04:21:46.270Z,3.90
2023-01-10T04:24:14.326Z,3.90
2023-01-10T04:26:43.857Z,3.90
2023-01-10T04:29:12.194Z,3.90
2023-01-10T04:31:40.909Z,3.90
2023-01-10T04:34:10.110Z,4.00
2023-01-10T04:36:38.347Z,4.00
2023-01-10T04:39:06.845Z,4.00
2023-01-10T04:41:34.899Z,4.00
2023-01-10T04:44:04.398Z,4.00
2023-01-10T04:46:32.836Z,4.00
2023-01-10T04:49:00.932Z,4.00
2023-01-10T04:51:29.664Z,3.90
2023-01-10T04:53:57.836Z,4.00
2023-01-10T04:56:26.586Z,4.00
2023-01-10T04:58:55.001Z,4.00
2023-01-10T05:01:26.587Z,4.00
2023-01-10T05:03:56.537Z,4.00
2023-01-10T05:06:25.779Z,4.10
2023-01-10T05:08:53.837Z,4.00
2023-01-10T05:11:21.918Z,4.10
2023-01-10T05:13:50.104Z,4.10
2023-01-10T05:16:18.505Z,4.00
2023-01-10T05:18:48.402Z,4.00
2023-01-10T05:21:16.528Z,4.00
2023-01-10T05:23:44.762Z,4.00
2023-01-10T05:26:14.805Z,4.00
2023-01-10T05:28:43.589Z,4.00
2023-01-10T05:31:14.598Z,3.90
2023-01-10T05:33:47.624Z,3.90
2023-01-10T05:36:16.122Z,3.90
2023-01-10T05:38:44.272Z,3.90
2023-01-10T05:41:12.441Z,3.90
2023-01-10T05:43:40.522Z,3.90
2023-01-10T05:46:08.705Z,3.80
2023-01-10T05:48:36.890Z,3.80
2023-01-10T05:51:07.054Z,3.80
2023-01-10T05:53:35.169Z,3.80
2023-01-10T05:56:04.314Z,3.80
2023-01-10T05:58:32.412Z,3.80
2023-01-10T06:01:00.591Z,3.70
2023-01-10T06:03:28.979Z,3.70
2023-01-10T06:05:57.614Z,3.80
2023-01-10T06:08:27.095Z,3.70
2023-01-10T06:10:55.752Z,3.80
2023-01-10T06:13:24.103Z,3.70
2023-01-10T06:15:52.400Z,3.70
2023-01-10T06:18:20.455Z,3.60
2023-01-10T06:20:48.583Z,3.60
2023-01-10T06:23:16.718Z,3.60
2023-01-10T06:25:46.259Z,3.60
2023-01-10T06:28:15.465Z,3.50
2023-01-10T06:30:44.367Z,3.50
2023-01-10T06:33:13.158Z,3.50
2023-01-10T06:35:41.565Z,3.40
2023-01-10T06:38:09.698Z,3.40
2023-01-10T06:40:37.830Z,3.40
2023-01-10T06:43:07.327Z,3.50
2023-01-10T06:45:35.407Z,3.50
2023-01-10T06:48:03.553Z,3.50
2023-01-10T06:50:31.972Z,3.50
2023-01-10T06:53:01.226Z,3.50
2023-01-10T06:55:30.336Z,3.50
2023-01-10T06:57:58.703Z,3.50
2023-01-10T07:00:29.336Z,3.50
2023-01-10T07:02:59.897Z,3.50
2023-01-10T07:05:29.134Z,3.50
2023-01-10T07:07:58.730Z,3.50
2023-01-10T07:10:26.983Z,3.50
2023-01-10T07:12:56.033Z,3.60
2023-01-10T07:15:24.247Z,3.60
2023-01-10T07:17:53.754Z,3.60
2023-01-10T07:20:21.830Z,3.80
2023-01-10T07:22:55.719Z,3.80
2023-01-10T07:25:23.772Z,3.90
2023-01-10T07:27:51.807Z,3.90
2023-01-10T07:30:20.108Z,3.90
2023-01-10T07:32:54.856Z,3.90
2023-01-10T07:35:23.283Z,3.90
2023-01-10T07:37:51.314Z,3.80
2023-01-10T07:40:19.685Z,3.80
2023-01-10T07:42:47.749Z,3.80
2023-01-10T07:45:15.841Z,3.90
2023-01-10T07:47:43.874Z,3.90
2023-01-10T07:50:13.380Z,3.90
2023-01-10T07:52:41.456Z,3.80
2023-01-10T07:55:10.535Z,3.80
2023-01-10T07:57:38.553Z,3.80
2023-01-10T08:00:07.792Z,3.80
2023-01-10T08:02:36.019Z,3.80
2023-01-10T08:05:04.253Z,3.80
2023-01-10T08:07:33.745Z,3.80
2023-01-10T08:10:01.861Z,3.80
2023-01-10T08:12:29.895Z,3.80
2023-01-10T08:14:58.044Z,3.90
2023-01-10T08:17:26.181Z,3.90
2023-01-10T08:19:54.237Z,3.90
2023-01-10T08:22:22.354Z,3.90
2023-01-10T08:24:51.737Z,3.90
2023-01-10T08:27:19.830Z,3.90
2023-01-10T08:29:47.856Z,3.90
2023-01-10T08:32:17.497Z,3.90
2023-01-10T08:34:45.761Z,3.80
2023-01-10T08:37:14.980Z,3.80
2023-01-10T08:39:43.067Z,3.80
2023-01-10T08:42:12.501Z,3.80
2023-01-10T08:44:40.638Z,3.90
2023-01-10T08:47:08.730Z,4.00
2023-01-10T08:49:36.778Z,4.00
2023-01-10T08:52:04.857Z,4.00
2023-01-10T08:54:33.181Z,4.10
2023-01-10T08:57:01.335Z,4.10
2023-01-10T08:59:30.839Z,4.00
2023-01-10T09:02:00.032Z,4.00
2023-01-10T09:04:32.739Z,4.00
2023-01-10T09:07:01.248Z,4.00
2023-01-10T09:09:29.307Z,4.00
2023-01-10T09:11:57.633Z,4.00
2023-01-10T09:14:25.705Z,4.10
2023-01-10T09:16:55.209Z,4.10
2023-01-10T09:19:23.270Z,4.20
2023-01-10T09:21:51.335Z,4.30
2023-01-10T09:24:20.055Z,4.40
2023-01-10T09:26:48.151Z,4.70
2023-01-10T09:29:16.266Z,5.10
2023-01-10T09:31:44.365Z,5.50
2023-01-10T09:34:13.800Z,5.60
2023-01-10T09:36:41.836Z,5.70
2023-01-10T09:39:09.973Z,5.60
2023-01-10T09:41:57.296Z,5.50
2023-01-10T09:44:38.564Z,5.30
2023-01-10T09:47:22.130Z,5.40
2023-01-10T09:50:02.630Z,5.40
2023-01-10T09:52:34.279Z,5.40
2023-01-10T09:55:21.629Z,5.50
2023-01-10T09:57:51.052Z,5.40
2023-01-10T10:00:23.380Z,5.30
2023-01-10T10:02:53.875Z,5.20
2023-01-10T10:05:25.830Z,5.20
2023-01-10T10:07:56.178Z,5.20
2023-01-10T10:10:26.879Z,5.20
2023-01-10T10:13:16.844Z,5.20
2023-01-10T10:15:59.798Z,5.20
2023-01-10T10:18:39.666Z,5.00
2023-01-10T10:21:20.671Z,5.00
2023-01-10T10:24:01.869Z,5.00
2023-01-10T10:26:34.893Z,5.00
2023-01-10T10:29:40.326Z,4.90
2023-01-10T10:32:25.174Z,4.90
2023-01-10T10:34:58.142Z,4.90
2023-01-10T10:37:33.474Z,4.90
2023-01-10T10:40:03.887Z,4.90
2023-01-10T10:42:35.090Z,5.00
2023-01-10T10:45:08.753Z,5.00
2023-01-10T10:47:39.829Z,5.00
2023-01-10T10:50:20.490Z,4.90
2023-01-10T10:52:50.069Z,4.90
2023-01-10T10:55:23.423Z,5.00
2023-01-10T10:57:59.936Z,5.00
2023-01-10T11:00:30.261Z,5.00
2023-01-10T11:03:03.475Z,5.10
2023-01-10T11:05:37.111Z,5.20
2023-01-10T11:08:12.526Z,5.20
2023-01-10T11:10:41.867Z,5.20
2023-01-10T11:13:22.219Z,5.20
2023-01-10T11:15:51.755Z,5.30
2023-01-10T11:18:21.718Z,5.40
2023-01-10T11:20:52.380Z,5.50
2023-01-10T11:23:29.244Z,5.60
2023-01-10T11:25:58.015Z,5.80
2023-01-10T11:28:30.989Z,5.80
2023-01-10T11:31:00.874Z,5.80
2023-01-10T11:33:31.911Z,5.80
2023-01-10T11:36:02.996Z,5.80
2023-01-10T11:38:32.945Z,5.90
2023-01-10T11:41:03.069Z,5.90
2023-01-10T11:43:36.893Z,5.90
2023-01-10T11:46:14.310Z,5.90
2023-01-10T11:49:04.829Z,6.00
2023-01-10T11:51:37.651Z,6.30
2023-01-10T11:54:11.848Z,6.50
2023-01-10T11:56:41.619Z,6.90
2023-01-10T11:59:13.520Z,7.10
2023-01-10T12:01:44.299Z,7.10
2023-01-10T12:04:16.347Z,6.90
2023-01-10T12:06:46.122Z,6.80
2023-01-10T12:09:37.432Z,6.60
2023-01-10T12:12:07.123Z,6.40
2023-01-10T12:14:36.065Z,6.30
2023-01-10T12:17:05.308Z,6.30
2023-01-10T12:19:33.512Z,6.00
2023-01-10T12:22:06.239Z,6.00
2023-01-10T12:24:40.191Z,5.90
2023-01-10T12:27:12.992Z,5.90
2023-01-10T12:29:44.620Z,6.10
2023-01-10T12:32:19.148Z,6.20
2023-01-10T12:34:51.842Z,6.10
2023-01-10T12:37:24.941Z,6.20
2023-01-10T12:40:00.577Z,6.30
2023-01-10T12:42:56.907Z,6.50
2023-01-10T12:45:27.970Z,6.40
2023-01-10T12:48:04.351Z,6.40
2023-01-10T12:50:38.101Z,6.20
2023-01-10T12:53:12.579Z,6.10
2023-01-10T12:55:43.789Z,5.90
2023-01-10T12:58:21.762Z,5.80
2023-01-10T13:00:53.941Z,5.70
2023-01-10T13:03:25.886Z,5.70
2023-01-10T13:05:54.705Z,5.70
2023-01-10T13:08:24.846Z,5.60
2023-01-10T13:10:56.880Z,5.60
2023-01-10T13:13:34.474Z,5.50
2023-01-10T13:16:19.537Z,5.50
2023-01-10T13:19:06.564Z,5.60
2023-01-10T13:21:36.106Z,5.60
2023-01-10T13:24:07.070Z,5.60
2023-01-10T13:26:53.486Z,5.60
2023-01-10T13:29:23.639Z,5.60
2023-01-10T13:31:57.559Z,5.60
2023-01-10T13:34:33.115Z,5.50
2023-01-10T13:37:03.864Z,5.50
2023-01-10T13:39:35.743Z,5.50
2023-01-10T13:42:46.014Z,5.40
2023-01-10T13:45:20.554Z,5.50
2023-01-10T13:48:06.024Z,5.50
2023-01-10T13:50:59.225Z,5.50
2023-01-10T13:53:45.468Z,5.40
2023-01-10T13:56:35.782Z,5.40
2023-01-10T13:59:29.179Z,5.40
2023-01-10T14:02:18.372Z,5.40
2023-01-10T14:04:49.664Z,5.40
2023-01-10T14:07:24.648Z,5.30
2023-01-10T14:09:54.095Z,5.30
2023-01-10T14:12:30.209Z,5.30
2023-01-10T14:15:02.753Z,5.30
2023-01-10T14:17:33.041Z,5.30
2023-01-10T14:20:19.440Z,5.30
2023-01-10T14:23:09.589Z,5.30
2023-01-10T14:25:39.204Z,5.30
2023-01-10T14:28:20.833Z,5.30
2023-01-10T14:31:01.685Z,5.30
2023-01-10T14:33:30.239Z,5.30
2023-01-10T14:36:01.694Z,5.20
2023-01-10T14:38:32.419Z,5.30
2023-01-10T14:41:03.981Z,5.20
2023-01-10T14:43:43.964Z,5.20
2023-01-10T14:46:17.358Z,5.20
2023-01-10T14:48:51.309Z,5.20
2023-01-10T14:51:23.363Z,5.20
2023-01-10T14:53:57.970Z,5.20
2023-01-10T14:56:28.259Z,5.10
2023-01-10T14:58:56.374Z,5.10
2023-01-10T15:01:29.547Z,5.10
2023-01-10T15:03:58.382Z,5.10
2023-01-10T15:06:26.544Z,5.10
2023-01-10T15:08:59.314Z,5.10
2023-01-10T15:11:29.131Z,5.10
2023-01-10T15:14:03.567Z,5.20
2023-01-10T15:16:34.752Z,5.20
2023-01-10T15:19:03.061Z,5.20
2023-01-10T15:21:31.454Z,5.20
2023-01-10T15:23:59.527Z,5.30
2023-01-10T15:26:30.426Z,5.20
2023-01-10T15:29:09.225Z,5.20
2023-01-10T15:31:39.538Z,5.20
2023-01-10T15:34:16.493Z,5.20
2023-01-10T15:36:48.114Z,5.30
2023-01-10T15:39:22.424Z,5.20
2023-01-10T15:41:55.642Z,5.20
2023-01-10T15:44:39.488Z,5.30
2023-01-10T15:47:35.524Z,5.20
2023-01-10T15:50:03.937Z,5.20
2023-01-10T15:52:32.078Z,5.30
2023-01-10T15:55:00.116Z,5.20
2023-01-10T15:57:32.936Z,5.30
2023-01-10T16:00:01.579Z,5.20
2023-01-10T16:02:33.931Z,5.10
2023-01-10T16:05:09.174Z,5.10
2023-01-10T16:07:44.354Z,5.20
2023-01-10T16:10:21.236Z,5.10
2023-01-10T16:13:07.292Z,5.10
2023-01-10T16:15:38.172Z,5.10
2023-01-10T16:18:07.726Z,5.20
2023-01-10T16:20:38.049Z,5.20
2023-01-10T16:23:08.889Z,5.20
2023-01-10T16:25:39.715Z,5.20
2023-01-10T16:28:08.044Z,5.10
2023-01-10T16:30:40.480Z,5.10
2023-01-10T16:33:16.203Z,5.10
2023-01-10T16:35:44.704Z,5.10
2023-01-10T16:38:13.543Z,5.10
2023-01-10T16:40:43.308Z,5.10
2023-01-10T16:43:21.376Z,5.00
2023-01-10T16:45:51.153Z,5.10
2023-01-10T16:48:21.743Z,5.00
2023-01-10T16:50:49.935Z,5.00
2023-01-10T16:53:19.844Z,5.10
2023-01-10T16:55:50.291Z,5.10
2023-01-10T16:58:19.510Z,5.10
2023-01-10T17:00:50.973Z,5.10
2023-01-10T17:03:22.989Z,5.00
2023-01-10T17:05:51.326Z,5.00
2023-01-10T17:08:22.098Z,5.00
2023-01-10T17:10:53.459Z,5.00
2023-01-10T17:13:25.627Z,5.00
2023-01-10T17:15:53.671Z,5.00
2023-01-10T17:18:24.965Z,5.10
2023-01-10T17:20:53.065Z,5.10
2023-01-10T17:23:21.152Z,5.10
2023-01-10T17:25:50.643Z,5.10
2023-01-10T17:28:19.461Z,5.10
2023-01-10T17:30:47.538Z,5.10
2023-01-10T17:33:15.639Z,5.20
2023-01-10T17:35:46.025Z,5.10
2023-01-10T17:38:16.271Z,5.00
2023-01-10T17:40:45.927Z,5.10
2023-01-10T17:43:14.913Z,5.00
2023-01-10T17:45:44.046Z,5.00
2023-01-10T17:48:14.914Z,5.00
2023-01-10T17:50:45.387Z,5.00
2023-01-10T17:53:13.708Z,5.00
2023-01-10T17:55:45.571Z,5.10
2023-01-10T17:58:14.099Z,5.00
2023-01-10T18:00:42.479Z,5.00
2023-01-10T18:03:11.022Z,4.90
2023-01-10T18:05:39.982Z,4.90
2023-01-10T18:08:09.383Z,4.90
2023-01-10T18:10:37.441Z,4.90
2023-01-10T18:13:05.473Z,4.90
2023-01-10T18:15:33.546Z,4.90
2023-01-10T18:18:01.625Z,4.80
2023-01-10T18:20:29.687Z,4.80
2023-01-10T18:23:15.242Z,4.80
2023-01-10T18:25:50.988Z,4.80
2023-01-10T18:28:23.523Z,4.80
2023-01-10T18:30:57.363Z,4.80
2023-01-10T18:33:25.469Z,4.70
2023-01-10T18:35:53.711Z,4.70
2023-01-10T18:38:21.734Z,4.70
2023-01-10T18:40:52.716Z,4.70
2023-01-10T18:43:20.817Z,4.80
2023-01-10T18:45:49.098Z,4.70
2023-01-10T18:48:18.211Z,4.70
2023-01-10T18:50:47.437Z,4.70
2023-01-10T18:53:15.467Z,4.70
2023-01-10T18:55:52.987Z,4.60
2023-01-10T18:58:24.485Z,4.60
2023-01-10T19:00:52.684Z,4.60
2023-01-10T19:03:20.745Z,4.60
2023-01-10T19:05:48.889Z,4.70
2023-01-10T19:08:17.365Z,4.60
2023-01-10T19:11:11.262Z,4.60
2023-01-10T19:13:35.940Z,4.60
2023-01-10T19:16:11.894Z,4.60
2023-01-10T19:18:40.101Z,4.60
2023-01-10T19:21:13.334Z,4.60
2023-01-10T19:23:41.427Z,4.50
2023-01-10T19:26:09.524Z,4.60
2023-01-10T19:28:38.982Z,4.60
2023-01-10T19:31:07.601Z,4.60
2023-01-10T19:33:37.452Z,4.50
2023-01-10T19:36:07.168Z,4.50
2023-01-10T19:38:35.363Z,4.50
2023-01-10T19:41:03.841Z,4.50
2023-01-10T19:43:33.692Z,4.50
2023-01-10T19:46:07.073Z,4.40
2023-01-10T19:48:37.889Z,4.40
2023-01-10T19:51:07.342Z,4.40
2023-01-10T19:53:36.387Z,4.40
2023-01-10T19:56:09.674Z,4.50
2023-01-10T19:58:39.115Z,4.40
2023-01-10T20:01:15.054Z,4.40
2023-01-10T20:03:46.548Z,4.40
2023-01-10T20:06:17.375Z,4.40
2023-01-10T20:08:46.411Z,4.40
2023-01-10T20:11:15.258Z,4.50
2023-01-10T20:13:45.042Z,4.50
2023-01-10T20:16:16.427Z,4.50
2023-01-10T20:18:45.077Z,4.50
2023-01-10T20:21:15.492Z,4.50
2023-01-10T20:23:44.233Z,4.60
2023-01-10T20:26:14.394Z,4.50
2023-01-10T20:28:44.034Z,4.50
2023-01-10T20:31:16.970Z,4.60
2023-01-10T20:33:45.094Z,4.50
2023-01-10T20:36:14.781Z,4.50
2023-01-10T20:38:43.141Z,4.60
2023-01-10T20:41:13.933Z,4.50
2023-01-10T20:43:43.750Z,4.50
2023-01-10T20:46:14.181Z,4.50
2023-01-10T20:48:44.650Z,4.60
2023-01-10T20:51:15.968Z,4.50
2023-01-10T20:53:44.362Z,4.60
2023-01-10T20:56:15.237Z,4.50
2023-01-10T20:58:43.592Z,4.50
2023-01-10T21:01:24.995Z,4.50
2023-01-10T21:04:02.938Z,4.60
2023-01-10T21:06:31.024Z,4.60
2023-01-10T21:08:59.114Z,4.50
2023-01-10T21:11:27.235Z,4.50
2023-01-10T21:13:55.318Z,4.50
2023-01-10T21:16:24.166Z,4.50
2023-01-10T21:18:53.412Z,4.50
2023-01-10T21:21:23.590Z,4.50
2023-01-10T21:23:54.141Z,4.50
2023-01-10T21:26:22.242Z,4.60
2023-01-10T21:28:57.340Z,4.50
2023-01-10T21:31:27.360Z,4.50
2023-01-10T21:33:55.764Z,4.50
2023-01-10T21:36:25.250Z,4.50
2023-01-10T21:38:53.303Z,4.50
2023-01-10T21:41:35.914Z,4.50
2023-01-10T21:44:04.270Z,4.50
2023-01-10T21:46:32.877Z,4.60
2023-01-10T21:49:02.459Z,4.60
2023-01-10T21:51:31.895Z,4.80
2023-01-10T21:54:00.043Z,5.20
2023-01-10T21:56:28.054Z,5.40
2023-01-10T21:58:56.125Z,5.50
2023-01-10T22:01:24.213Z,5.70
2023-01-10T22:03:52.303Z,5.50
2023-01-10T22:06:20.479Z,5.50
2023-01-10T22:08:50.438Z,5.40
2023-01-10T22:11:18.471Z,5.40
2023-01-10T22:13:47.253Z,5.30
2023-01-10T22:16:15.407Z,5.40
2023-01-10T22:18:45.453Z,5.30
2023-01-10T22:21:15.553Z,5.20
2023-01-10T22:23:45.337Z,5.10
2023-01-10T22:26:16.539Z,5.10
2023-01-10T22:28:44.831Z,5.00
2023-01-10T22:31:13.205Z,5.00
2023-01-10T22:33:42.848Z,4.90
2023-01-10T22:36:16.367Z,4.90
2023-01-10T22:38:45.142Z,4.90
2023-01-10T22:41:16.428Z,5.00
2023-01-10T22:43:44.917Z,5.00
2023-01-10T22:46:15.750Z,5.00
2023-01-10T22:48:44.482Z,5.00
2023-01-10T22:51:12.959Z,5.00
2023-01-10T22:53:41.029Z,5.00
2023-01-10T22:56:11.281Z,5.10
2023-01-10T22:58:42.344Z,5.00
2023-01-10T23:01:10.395Z,5.00
2023-01-10T23:03:38.578Z,5.00
2023-01-10T23:06:06.836Z,5.00
2023-01-10T23:08:35.197Z,5.10
2023-01-10T23:11:03.472Z,5.10
2023-01-10T23:13:31.975Z,5.10
2023-01-10T23:16:03.321Z,5.20
2023-01-10T23:18:32.072Z,5.30
2023-01-10T23:21:00.532Z,5.40
2023-01-10T23:23:29.224Z,5.30
2023-01-10T23:26:04.784Z,5.30
2023-01-10T23:28:34.517Z,5.30
2023-01-10T23:31:04.922Z,5.30
2023-01-10T23:33:33.606Z,5.30
2023-01-10T23:36:01.811Z,5.30
2023-01-10T23:38:30.001Z,5.40
2023-01-10T23:40:58.739Z,5.30
2023-01-10T23:43:26.966Z,5.20
2023-01-10T23:45:55.348Z,5.20
2023-01-10T23:48:24.904Z,5.20
2023-01-10T23:50:53.204Z,5.40
2023-01-10T23:53:21.272Z,5.50
2023-01-10T23:55:49.466Z,5.40
2023-01-10T23:58:17.914Z,5.30
